Terminal Aerodrome Forecast
Issued by NWS Brownsville, TX

Home | Current Version | Previous Version | Text Only | Print | Product List | Glossary On
Versions: 1 2 3 4 5 6 7 8 9 10 11 12
000
FTUS44 KBRO 291120
TAFBRO
TAF
KBRO 291120Z 2912/3012 VRB02KT P6SM FEW025
     FM291400 34007KT P6SM SCT040
     FM292000 07010KT P6SM SCT050
     FM300300 VRB02KT P6SM SCT025=

USA.gov is the U.S. government's official web portal to all federal, state and local government web resources and services.